createdAt,value
2018-09-11T00:00:02.954Z,0
2018-09-11T00:05:02.460Z,0
2018-09-11T00:10:03.039Z,0
2018-09-11T00:15:02.650Z,0
2018-09-11T00:20:03.304Z,0
2018-09-11T00:25:02.958Z,0
2018-09-11T00:30:02.575Z,0
2018-09-11T00:35:03.156Z,0
2018-09-11T00:40:02.808Z,0
2018-09-11T00:45:02.353Z,0
2018-09-11T00:50:02.987Z,0
2018-09-11T00:55:02.514Z,0
2018-09-11T01:00:03.109Z,0
2018-09-11T01:05:02.702Z,0
2018-09-11T01:10:03.413Z,0
2018-09-11T01:15:03.289Z,0
2018-09-11T01:20:02.958Z,0
2018-09-11T01:25:02.618Z,0
2018-09-11T01:30:03.219Z,0
2018-09-11T01:35:02.694Z,0
2018-09-11T01:40:03.341Z,0
2018-09-11T01:45:02.919Z,0
2018-09-11T01:50:02.584Z,0
2018-09-11T01:55:03.109Z,0
2018-09-11T02:00:02.667Z,0
2018-09-11T02:05:03.241Z,0
2018-09-11T02:10:02.841Z,0
2018-09-11T02:15:02.482Z,0
2018-09-11T02:20:03.091Z,0
2018-09-11T02:25:02.756Z,0
2018-09-11T02:30:03.352Z,0
2018-09-11T02:35:02.974Z,0
2018-09-11T02:40:02.620Z,0
2018-09-11T02:45:03.241Z,0
2018-09-11T02:50:02.806Z,0
2018-09-11T02:55:02.391Z,0
2018-09-11T03:00:02.988Z,0
2018-09-11T03:05:02.539Z,0
2018-09-11T03:10:03.169Z,0
2018-09-11T03:15:02.780Z,0
2018-09-11T03:20:03.297Z,0
2018-09-11T03:25:03.115Z,0
2018-09-11T03:30:02.777Z,0
2018-09-11T03:35:02.397Z,0
2018-09-11T03:40:03.043Z,0
2018-09-11T03:45:02.687Z,0
2018-09-11T03:50:03.346Z,0
2018-09-11T03:55:02.925Z,0
2018-09-11T04:00:02.766Z,0
2018-09-11T04:05:03.337Z,0
2018-09-11T04:10:02.961Z,0
2018-09-11T04:15:02.590Z,0
2018-09-11T04:20:03.126Z,0
2018-09-11T04:25:02.789Z,0
2018-09-11T04:30:02.387Z,0
2018-09-11T04:35:02.882Z,2
2018-09-11T04:40:02.596Z,5
2018-09-11T04:45:03.146Z,12
2018-09-11T04:50:02.689Z,20
2018-09-11T04:55:03.301Z,24
2018-09-11T05:00:02.886Z,36
2018-09-11T05:05:02.452Z,39
2018-09-11T05:10:03.103Z,57
2018-09-11T05:15:02.678Z,71
2018-09-11T05:20:03.370Z,266
2018-09-11T05:25:02.917Z,515
2018-09-11T05:30:02.555Z,622
2018-09-11T05:35:03.342Z,951
2018-09-11T05:40:02.948Z,951
2018-09-11T05:45:02.580Z,874
2018-09-11T05:50:03.220Z,1000
2018-09-11T05:55:02.805Z,824
2018-09-11T06:00:03.313Z,839
2018-09-11T06:05:02.835Z,874
2018-09-11T06:10:02.422Z,1000
2018-09-11T06:15:02.961Z,1000
2018-09-11T06:20:02.468Z,1000
2018-09-11T06:25:03.047Z,1000
2018-09-11T06:30:02.624Z,1000
2018-09-11T06:35:03.219Z,2000
2018-09-11T06:40:02.783Z,2000
2018-09-11T06:45:03.342Z,3000
2018-09-11T06:50:02.837Z,2000
2018-09-11T06:55:03.351Z,3000
2018-09-11T07:00:02.899Z,4000
2018-09-11T07:05:02.471Z,4000
2018-09-11T07:10:03.148Z,4000
2018-09-11T07:15:02.628Z,4000
2018-09-11T07:20:04.001Z,4000
2018-09-11T07:25:03.190Z,5000
2018-09-11T07:30:04.637Z,4000
2018-09-11T07:35:03.295Z,6000
2018-09-11T07:40:03.112Z,5000
2018-09-11T07:45:03.175Z,4000
2018-09-11T07:50:03.521Z,5000
2018-09-11T07:55:02.916Z,4000
2018-09-11T08:00:02.762Z,5000
2018-09-11T08:05:03.149Z,6000
2018-09-11T08:10:02.704Z,14000
2018-09-11T08:15:03.041Z,24000
2018-09-11T08:20:02.482Z,13000
2018-09-11T08:25:02.886Z,13000
2018-09-11T08:30:03.237Z,12000
2018-09-11T08:35:02.603Z,14000
2018-09-11T08:40:03.173Z,7000
2018-09-11T08:45:02.490Z,6000
2018-09-11T08:50:03.023Z,28000
2018-09-11T08:55:02.351Z,10000
2018-09-11T09:00:02.791Z,9000
2018-09-11T09:05:03.141Z,9000
2018-09-11T09:10:02.679Z,33000
2018-09-11T09:15:02.680Z,35000
2018-09-11T09:20:03.211Z,49000
2018-09-11T09:25:02.799Z,24000
2018-09-11T09:30:02.487Z,14000
2018-09-11T09:35:03.024Z,15000
2018-09-11T09:40:02.659Z,9000
2018-09-11T09:45:03.218Z,44000
2018-09-11T09:50:02.850Z,34000
2018-09-11T09:55:02.422Z,28000
2018-09-11T10:00:02.966Z,17000
2018-09-11T10:05:02.587Z,44000
2018-09-11T10:10:03.175Z,21000
2018-09-11T10:15:02.704Z,45000
2018-09-11T10:20:03.292Z,46000
2018-09-11T10:25:02.865Z,31000
2018-09-11T10:30:02.353Z,43000
2018-09-11T10:35:02.936Z,9000
2018-09-11T10:40:02.610Z,41000
2018-09-11T10:45:03.367Z,33000
2018-09-11T10:50:02.372Z,41000
2018-09-11T10:55:02.933Z,21000
2018-09-11T11:00:02.686Z,41000
2018-09-11T11:05:02.363Z,41000
2018-09-11T11:10:02.943Z,24000
2018-09-11T11:15:02.524Z,33000
2018-09-11T11:20:03.069Z,39000
2018-09-11T11:25:02.574Z,39000
2018-09-11T11:30:03.167Z,38000
2018-09-11T11:35:02.767Z,42000
2018-09-11T11:40:03.286Z,39000
2018-09-11T11:45:02.942Z,37000
2018-09-11T11:50:02.598Z,36000
2018-09-11T11:55:03.396Z,37000
2018-09-11T12:00:02.591Z,39000
2018-09-11T12:05:03.223Z,39000
2018-09-11T12:10:02.907Z,36000
2018-09-11T12:15:02.551Z,35000
2018-09-11T12:20:03.128Z,36000
2018-09-11T12:25:02.667Z,33000
2018-09-11T12:30:03.371Z,35000
2018-09-11T12:35:03.140Z,37000
2018-09-11T12:40:03.128Z,36000
2018-09-11T12:45:02.642Z,34000
2018-09-11T12:50:03.276Z,33000
2018-09-11T12:55:02.854Z,33000
2018-09-11T13:00:02.546Z,33000
2018-09-11T13:05:03.267Z,32000
2018-09-11T13:10:02.869Z,32000
2018-09-11T13:15:03.438Z,32000
2018-09-11T13:20:02.587Z,31000
2018-09-11T13:25:03.287Z,32000
2018-09-11T13:30:02.847Z,32000
2018-09-11T13:35:02.615Z,30000
2018-09-11T13:40:03.252Z,30000
2018-09-11T13:45:02.849Z,26000
2018-09-11T13:50:02.510Z,30000
2018-09-11T13:55:03.252Z,26000
2018-09-11T14:00:02.758Z,21000
2018-09-11T14:05:02.491Z,26000
2018-09-11T14:10:03.333Z,24000
2018-09-11T14:15:02.968Z,22000
2018-09-11T14:20:02.615Z,17000
2018-09-11T14:25:03.267Z,23000
2018-09-11T14:30:02.796Z,23000
2018-09-11T14:35:03.424Z,23000
2018-09-11T14:40:03.196Z,13000
2018-09-11T14:45:03.135Z,13000
2018-09-11T14:50:02.707Z,12000
2018-09-11T14:55:03.338Z,15000
2018-09-11T15:00:02.956Z,19000
2018-09-11T15:05:02.673Z,20000
2018-09-11T15:10:03.421Z,19000
2018-09-11T15:15:03.205Z,26000
2018-09-11T15:20:03.370Z,13000
2018-09-11T15:25:02.906Z,20000
2018-09-11T15:30:02.913Z,19000
2018-09-11T15:35:03.228Z,18000
2018-09-11T15:40:02.800Z,17000
2018-09-11T15:45:02.522Z,16000
2018-09-11T15:50:03.057Z,13000
2018-09-11T15:55:02.649Z,11000
2018-09-11T16:00:03.199Z,4000
2018-09-11T16:05:02.736Z,16000
2018-09-11T16:10:03.404Z,11000
2018-09-11T16:15:03.159Z,5000
2018-09-11T16:20:03.152Z,8000
2018-09-11T16:25:02.749Z,7000
2018-09-11T16:30:03.456Z,3000
2018-09-11T16:35:03.271Z,6000
2018-09-11T16:40:02.873Z,6000
2018-09-11T16:45:02.779Z,5000
2018-09-11T16:50:02.410Z,4000
2018-09-11T16:55:02.994Z,5000
2018-09-11T17:00:02.888Z,5000
2018-09-11T17:05:02.473Z,2000
2018-09-11T17:10:03.193Z,2000
2018-09-11T17:15:02.714Z,4000
2018-09-11T17:20:03.438Z,2000
2018-09-11T17:25:03.240Z,1000
2018-09-11T17:30:02.850Z,951
2018-09-11T17:35:02.447Z,686
2018-09-11T17:40:03.075Z,553
2018-09-11T17:45:02.714Z,428
2018-09-11T17:50:03.268Z,166
2018-09-11T17:55:02.804Z,88
2018-09-11T18:00:03.353Z,75
2018-09-11T18:05:02.953Z,71
2018-09-11T18:10:02.511Z,82
2018-09-11T18:15:03.098Z,61
2018-09-11T18:20:02.758Z,11
2018-09-11T18:25:02.539Z,4
2018-09-11T18:30:03.255Z,1
2018-09-11T18:35:02.965Z,0
2018-09-11T18:40:02.704Z,0
2018-09-11T18:45:03.599Z,0
2018-09-11T18:50:02.863Z,0
2018-09-11T18:55:02.532Z,0
2018-09-11T19:00:03.062Z,0
2018-09-11T19:05:02.704Z,0
2018-09-11T19:10:02.664Z,0
2018-09-11T19:15:03.232Z,0
2018-09-11T19:20:03.006Z,0
2018-09-11T19:25:03.176Z,0
2018-09-11T19:30:02.692Z,0
2018-09-11T19:35:03.391Z,0
2018-09-11T19:40:03.064Z,0
2018-09-11T19:45:02.840Z,0
2018-09-11T19:50:02.638Z,0
2018-09-11T19:55:02.496Z,0
2018-09-11T20:00:03.179Z,0
2018-09-11T20:05:03.256Z,0
2018-09-11T20:10:02.370Z,0
2018-09-11T20:15:02.980Z,0
2018-09-11T20:20:02.654Z,0
2018-09-11T20:25:03.363Z,0
2018-09-11T20:30:03.008Z,0
2018-09-11T20:35:02.864Z,0
2018-09-11T20:40:02.408Z,0
2018-09-11T20:45:03.399Z,0
2018-09-11T20:50:02.664Z,0
2018-09-11T20:55:03.397Z,0
2018-09-11T21:00:02.927Z,0
2018-09-11T21:05:02.695Z,0
2018-09-11T21:10:03.404Z,0
2018-09-11T21:15:03.007Z,0
2018-09-11T21:20:02.851Z,0
2018-09-11T21:25:02.408Z,0
2018-09-11T21:30:03.327Z,0
2018-09-11T21:35:02.885Z,0
2018-09-11T21:40:02.548Z,0
2018-09-11T21:45:03.268Z,0
2018-09-11T21:50:02.850Z,0
2018-09-11T21:55:02.587Z,0
2018-09-11T22:00:03.369Z,0
2018-09-11T22:05:03.331Z,0
2018-09-11T22:10:02.951Z,0
2018-09-11T22:15:02.597Z,0
2018-09-11T22:20:03.329Z,0
2018-09-11T22:25:02.959Z,0
2018-09-11T22:30:03.386Z,0
2018-09-11T22:35:03.023Z,0
2018-09-11T22:40:02.864Z,0
2018-09-11T22:45:02.430Z,0
2018-09-11T22:50:03.201Z,0
2018-09-11T22:55:02.819Z,0
2018-09-11T23:00:02.473Z,0
2018-09-11T23:05:02.818Z,0
2018-09-11T23:10:02.591Z,0
2018-09-11T23:15:03.116Z,0
2018-09-11T23:20:02.816Z,0
2018-09-11T23:25:02.421Z,0
2018-09-11T23:30:02.984Z,0
2018-09-11T23:35:02.668Z,0
2018-09-11T23:40:03.382Z,0
2018-09-11T23:45:03.016Z,0
2018-09-11T23:50:02.712Z,0
2018-09-11T23:55:03.327Z,0
